CheckWX is a tool to help pilots better visualize weather data.  It is not intended as a substitute for an official pre-flight weather briefing.

21:09:11 UTC

EHJA METAR
J6-a Sea
J6-a Sea, The Netherlands
Current

44 mins ago

EHJA 292025Z AUTO 23033KT 9999 FEW037/// 08/04 Q1004
Observed
Jan-29 @ 20:25 UTC
Wind
  • 230° at 33 KTS
Visibility
10,000+ meters
Flight Rules
VFR
Cloud Levels
  • Few at 3,700' AGL
Temperature
C / 46°F
Dewpoint
C / 39°F
Humidity
76%
Altimeter
29.65" Hg
Pressure
1003.92 hPa
Previous

1 hour ago

EHJA 291955Z AUTO 23032KT 9999 FEW032/// SCT045/// 08/04 Q1003 REDZ
Observed
Jan-29 @ 19:55 UTC
Wind
  • 230° at 32 KTS
Visibility
10,000+ meters
Flight Rules
VFR
Cloud Levels
  • Few at 3,200' AGL
  • Scattered at 4,500' AGL
Temperature
C / 46°F
Dewpoint
C / 39°F
Humidity
76%
Altimeter
29.62" Hg
Pressure
1002.92 hPa
Previous

2 hours ago

EHJA 291925Z AUTO 23032KT 9999 DZRA FEW033/// 08/04 Q1003
Observed
Jan-29 @ 19:25 UTC
Wind
  • 230° at 32 KTS
Visibility
10,000+ meters
Flight Rules
VFR
Conditions
Drizzle, Rain
Cloud Levels
  • Few at 3,300' AGL
Temperature
C / 46°F
Dewpoint
C / 39°F
Humidity
76%
Altimeter
29.62" Hg
Pressure
1002.92 hPa